createdAt,value
2023-02-24T00:02:06.225Z,18.85
2023-02-24T00:04:40.668Z,17.88
2023-02-24T00:07:14.474Z,18.90
2023-02-24T00:09:44.799Z,19.23
2023-02-24T00:12:16.372Z,18.42
2023-02-24T00:14:54.119Z,19.33
2023-02-24T00:17:27.843Z,19.08
2023-02-24T00:20:01.593Z,18.95
2023-02-24T00:25:08.622Z,17.45
2023-02-24T00:27:39.030Z,18.52
2023-02-24T00:30:12.468Z,17.83
2023-02-24T00:32:41.191Z,18.48
2023-02-24T00:35:11.077Z,18.08
2023-02-24T00:37:41.980Z,17.83
2023-02-24T00:40:12.987Z,18.02
2023-02-24T00:42:43.562Z,17.15
2023-02-24T00:45:16.908Z,18.08
2023-02-24T00:47:53.268Z,17.27
2023-02-24T00:50:29.025Z,17.92
2023-02-24T00:52:59.697Z,17.65
2023-02-24T00:55:36.431Z,17.17
2023-02-24T00:58:12.958Z,17.20
2023-02-24T01:00:47.931Z,17.17
2023-02-24T01:03:17.541Z,17.80
2023-02-24T01:05:45.401Z,17.08
2023-02-24T01:08:21.603Z,16.83
2023-02-24T01:11:18.282Z,16.17
2023-02-24T01:13:51.067Z,16.10
2023-02-24T01:16:26.703Z,16.23
2023-02-24T01:18:56.989Z,16.33
2023-02-24T01:21:35.509Z,16.70
2023-02-24T01:24:10.579Z,16.55
2023-02-24T01:26:41.350Z,16.25
2023-02-24T01:29:14.489Z,15.55
2023-02-24T01:31:48.812Z,15.60
2023-02-24T01:34:19.340Z,16.38
2023-02-24T01:36:54.153Z,16.67
2023-02-24T01:39:22.279Z,15.70
2023-02-24T01:41:53.279Z,16.30
2023-02-24T01:44:27.292Z,15.10
2023-02-24T01:47:03.873Z,15.32
2023-02-24T01:49:46.049Z,15.30
2023-02-24T01:52:27.686Z,15.63
2023-02-24T01:55:10.637Z,14.90
2023-02-24T01:57:46.116Z,15.10
2023-02-24T02:00:40.249Z,15.10
2023-02-24T02:03:32.492Z,13.20
2023-02-24T02:06:12.078Z,15.07
2023-02-24T02:08:45.595Z,14.30
2023-02-24T02:11:23.774Z,14.10
2023-02-24T02:13:56.856Z,14.27
2023-02-24T02:16:55.900Z,15.18
2023-02-24T02:19:45.353Z,13.23
2023-02-24T02:22:38.446Z,13.38
2023-02-24T02:25:09.552Z,13.68
2023-02-24T02:28:15.184Z,13.07
2023-02-24T02:31:01.939Z,14.40
2023-02-24T02:33:54.499Z,13.27
2023-02-24T02:36:52.513Z,13.27
2023-02-24T02:39:34.568Z,13.27
2023-02-24T02:42:15.775Z,14.27
2023-02-24T02:45:06.463Z,12.57
2023-02-24T02:48:02.769Z,12.20
2023-02-24T02:50:45.979Z,12.95
2023-02-24T02:53:24.661Z,12.75
2023-02-24T02:56:06.749Z,13.00
2023-02-24T02:58:53.224Z,12.55
2023-02-24T03:01:29.212Z,12.57
2023-02-24T03:04:07.391Z,12.32
2023-02-24T03:07:07.641Z,12.23
2023-02-24T03:09:40.080Z,12.63
2023-02-24T03:12:17.557Z,12.63
2023-02-24T03:14:51.210Z,12.90
2023-02-24T03:17:26.927Z,12.23
2023-02-24T03:20:17.760Z,11.45
2023-02-24T03:23:05.084Z,11.60
2023-02-24T03:25:44.547Z,12.30
2023-02-24T03:28:24.550Z,11.95
2023-02-24T03:31:07.054Z,12.18
2023-02-24T03:34:07.473Z,11.48
2023-02-24T03:36:44.560Z,11.90
2023-02-24T03:39:17.948Z,11.13
2023-02-24T03:42:05.426Z,11.75
2023-02-24T03:44:46.866Z,11.70
2023-02-24T03:47:16.636Z,11.13
2023-02-24T03:49:50.540Z,11.23
2023-02-24T03:52:32.651Z,11.95
2023-02-24T03:55:22.467Z,11.40
2023-02-24T03:58:22.944Z,12.05
2023-02-24T04:01:06.496Z,10.93
2023-02-24T04:03:57.710Z,11.23
2023-02-24T04:06:56.265Z,10.82
2023-02-24T04:09:28.123Z,11.07
2023-02-24T04:12:15.536Z,10.77
2023-02-24T04:15:11.806Z,10.63
2023-02-24T04:17:49.021Z,11.10
2023-02-24T04:20:27.913Z,11.27
2023-02-24T04:23:16.796Z,11.30
2023-02-24T04:25:56.345Z,10.18
2023-02-24T04:28:31.206Z,11.50
2023-02-24T04:31:13.102Z,10.80
2023-02-24T04:33:44.460Z,10.38
2023-02-24T04:36:15.299Z,10.50
2023-02-24T04:38:43.611Z,10.93
2023-02-24T04:41:21.018Z,11.30
2023-02-24T04:43:53.131Z,11.30
2023-02-24T04:46:23.772Z,10.65
2023-02-24T04:48:57.235Z,10.95
2023-02-24T04:51:24.669Z,10.95
2023-02-24T04:53:57.562Z,10.25
2023-02-24T04:56:28.995Z,10.68
2023-02-24T04:59:03.082Z,10.73
2023-02-24T05:01:31.640Z,11.07
2023-02-24T05:04:01.962Z,10.48
2023-02-24T05:06:29.626Z,10.82
2023-02-24T05:09:02.851Z,10.35
2023-02-24T05:11:36.604Z,10.00
2023-02-24T05:14:07.789Z,10.15
2023-02-24T05:16:42.766Z,10.75
2023-02-24T05:19:48.264Z,9.85
2023-02-24T05:22:18.772Z,9.38
2023-02-24T05:24:50.174Z,9.82
2023-02-24T05:27:24.532Z,10.25
2023-02-24T05:29:55.834Z,9.40
2023-02-24T05:32:25.456Z,10.18
2023-02-24T05:35:01.197Z,9.77
2023-02-24T05:37:34.083Z,9.90
2023-02-24T05:40:10.228Z,9.73
2023-02-24T05:42:46.461Z,9.95
2023-02-24T05:45:14.767Z,9.65
2023-02-24T05:47:46.636Z,10.15
2023-02-24T05:50:26.498Z,9.65
2023-02-24T05:53:19.627Z,9.55
2023-02-24T05:55:47.906Z,9.80
2023-02-24T05:58:17.681Z,9.57
2023-02-24T06:00:46.454Z,9.82
2023-02-24T06:03:30.886Z,9.93
2023-02-24T06:06:09.097Z,10.05
2023-02-24T06:08:43.689Z,9.43
2023-02-24T06:11:14.227Z,9.30
2023-02-24T06:13:48.272Z,9.38
2023-02-24T06:16:19.309Z,9.23
2023-02-24T06:18:50.043Z,9.68
2023-02-24T06:21:23.450Z,8.60
2023-02-24T06:23:53.703Z,9.27
2023-02-24T06:26:33.680Z,9.05
2023-02-24T06:29:05.682Z,9.60
2023-02-24T06:31:39.750Z,9.30
2023-02-24T06:34:14.674Z,8.60
2023-02-24T06:36:49.145Z,8.85
2023-02-24T06:39:19.724Z,8.68
2023-02-24T06:41:52.369Z,9.30
2023-02-24T06:44:20.362Z,8.80
2023-02-24T06:46:48.191Z,9.73
2023-02-24T06:49:21.434Z,8.90
2023-02-24T06:51:50.373Z,9.18
2023-02-24T06:54:29.112Z,9.18
2023-02-24T06:56:59.463Z,8.95
2023-02-24T06:59:29.804Z,8.23
2023-02-24T07:01:58.889Z,9.27
2023-02-24T07:04:43.507Z,9.70
2023-02-24T07:07:17.423Z,8.68
2023-02-24T07:09:46.316Z,9.25
2023-02-24T07:12:18.208Z,8.32
2023-02-24T07:14:53.971Z,9.32
2023-02-24T07:17:24.944Z,9.45
2023-02-24T07:20:02.264Z,8.40
2023-02-24T07:22:35.296Z,8.63
2023-02-24T07:25:07.278Z,8.18
2023-02-24T07:27:40.518Z,8.70
2023-02-24T07:30:12.272Z,8.38
2023-02-24T07:32:42.707Z,8.48
2023-02-24T07:35:16.056Z,9.02
2023-02-24T07:37:51.063Z,8.88
2023-02-24T07:40:26.156Z,8.27
2023-02-24T07:42:57.446Z,8.95
2023-02-24T07:45:36.339Z,8.50
2023-02-24T07:48:12.552Z,8.63
2023-02-24T07:50:46.187Z,8.60
2023-02-24T07:55:53.914Z,8.63
2023-02-24T07:58:31.203Z,8.25
2023-02-24T08:01:08.842Z,8.50
2023-02-24T08:03:41.652Z,8.52
2023-02-24T08:06:27.116Z,8.63
2023-02-24T08:09:26.826Z,8.23
2023-02-24T08:13:03.961Z,8.05
2023-02-24T08:15:34.511Z,8.18
2023-02-24T08:18:03.219Z,7.90
2023-02-24T08:20:52.485Z,8.45
2023-02-24T08:23:23.568Z,7.95
2023-02-24T08:25:53.836Z,8.32
2023-02-24T08:28:27.495Z,8.32
2023-02-24T08:30:55.422Z,7.97
2023-02-24T08:33:30.421Z,8.32
2023-02-24T08:36:02.381Z,8.23
2023-02-24T08:38:45.126Z,8.25
2023-02-24T08:41:26.568Z,8.23
2023-02-24T08:43:54.410Z,8.45
2023-02-24T08:46:32.865Z,9.18
2023-02-24T08:49:10.704Z,9.02
2023-02-24T08:51:44.076Z,8.07
2023-02-24T08:54:47.034Z,8.45
2023-02-24T08:57:20.535Z,9.00
2023-02-24T08:59:57.879Z,9.85
2023-02-24T09:02:37.267Z,9.70
2023-02-24T09:05:14.629Z,9.60
2023-02-24T09:07:42.586Z,8.93
2023-02-24T09:10:20.461Z,8.70
2023-02-24T09:12:53.689Z,9.25
2023-02-24T09:15:41.649Z,8.93
2023-02-24T09:18:17.307Z,8.80
2023-02-24T09:21:17.060Z,8.68
2023-02-24T09:23:49.872Z,10.93
2023-02-24T09:26:20.920Z,9.60
2023-02-24T09:28:59.803Z,10.18
2023-02-24T09:31:40.998Z,9.00
2023-02-24T09:34:18.736Z,8.82
2023-02-24T09:37:02.899Z,9.60
2023-02-24T09:39:53.310Z,9.18
2023-02-24T09:42:34.915Z,9.30
2023-02-24T09:45:35.933Z,9.52
2023-02-24T09:48:16.699Z,9.50
2023-02-24T09:51:04.509Z,8.88
2023-02-24T09:53:41.257Z,9.43
2023-02-24T09:56:49.337Z,9.10
2023-02-24T09:59:27.455Z,9.65
2023-02-24T10:02:13.026Z,8.90
2023-02-24T10:05:07.548Z,9.30
2023-02-24T10:07:44.073Z,9.73
2023-02-24T10:10:28.284Z,10.52
2023-02-24T10:13:14.973Z,10.35
2023-02-24T10:15:58.805Z,10.10
2023-02-24T10:18:33.453Z,9.95
2023-02-24T10:21:06.642Z,10.13
2023-02-24T10:23:56.783Z,10.40
2023-02-24T10:26:32.032Z,9.68
2023-02-24T10:29:18.978Z,10.68
2023-02-24T10:31:57.983Z,10.73
2023-02-24T10:34:31.955Z,10.90
2023-02-24T10:37:26.228Z,10.70
2023-02-24T10:40:13.119Z,10.30
2023-02-24T10:42:49.878Z,10.48
2023-02-24T10:45:35.382Z,11.10
2023-02-24T10:48:08.566Z,10.73
2023-02-24T10:50:55.313Z,10.88
2023-02-24T10:53:38.065Z,11.02
2023-02-24T10:56:26.715Z,10.80
2023-02-24T10:59:21.980Z,10.70
2023-02-24T11:02:29.570Z,9.98
2023-02-24T11:05:27.336Z,11.15
2023-02-24T11:08:37.860Z,11.25
2023-02-24T11:11:51.186Z,11.40
2023-02-24T11:14:37.704Z,11.30
2023-02-24T11:17:23.155Z,9.82
2023-02-24T11:20:13.397Z,10.88
2023-02-24T11:22:48.472Z,10.85
2023-02-24T11:25:51.435Z,10.77
2023-02-24T11:28:57.407Z,10.25
2023-02-24T11:31:37.273Z,9.68
2023-02-24T11:34:29.314Z,11.30
2023-02-24T11:37:14.672Z,10.80
2023-02-24T11:39:59.108Z,10.73
2023-02-24T11:42:47.066Z,10.80
2023-02-24T11:45:39.552Z,10.48
2023-02-24T11:48:16.008Z,10.35
2023-02-24T11:51:36.360Z,10.32
2023-02-24T11:54:15.446Z,9.57
2023-02-24T11:56:50.380Z,10.13
2023-02-24T11:59:39.865Z,9.65
2023-02-24T12:02:44.300Z,9.95
2023-02-24T12:08:05.178Z,9.20
2023-02-24T12:10:41.639Z,8.75
2023-02-24T12:13:26.499Z,9.20
2023-02-24T12:16:07.891Z,10.60
2023-02-24T12:18:52.196Z,9.48
2023-02-24T12:21:35.682Z,8.80
2023-02-24T12:24:13.873Z,9.55
2023-02-24T12:27:08.037Z,8.95
2023-02-24T12:32:31.431Z,10.15
2023-02-24T12:35:22.501Z,9.18
2023-02-24T12:37:55.037Z,9.60
2023-02-24T12:40:42.141Z,9.63
2023-02-24T12:43:18.377Z,9.30
2023-02-24T12:46:13.978Z,9.00
2023-02-24T12:49:18.863Z,9.57
2023-02-24T12:51:58.548Z,8.43
2023-02-24T12:55:00.441Z,8.70
2023-02-24T12:57:50.413Z,8.77
2023-02-24T13:00:47.379Z,7.90
2023-02-24T13:03:44.391Z,8.82
2023-02-24T13:06:23.246Z,9.43
2023-02-24T13:09:11.004Z,8.70
2023-02-24T13:12:03.308Z,8.73
2023-02-24T13:14:34.864Z,8.90
2023-02-24T13:17:15.231Z,8.70
2023-02-24T13:19:44.539Z,8.77
2023-02-24T13:22:18.364Z,8.80
2023-02-24T13:24:54.942Z,8.15
2023-02-24T13:27:43.087Z,8.32
2023-02-24T13:30:46.969Z,8.30
2023-02-24T13:33:19.826Z,8.20
2023-02-24T13:36:05.124Z,8.90
2023-02-24T13:38:32.873Z,8.15
2023-02-24T13:41:28.703Z,8.50
2023-02-24T13:44:03.957Z,8.65
2023-02-24T13:46:53.444Z,8.23
2023-02-24T13:49:51.939Z,8.07
2023-02-24T13:52:37.973Z,7.90
2023-02-24T13:55:29.569Z,8.27
2023-02-24T13:58:24.552Z,8.57
2023-02-24T14:01:16.773Z,8.20
2023-02-24T14:04:08.092Z,7.88
2023-02-24T14:06:37.025Z,8.32
2023-02-24T14:09:08.291Z,7.97
2023-02-24T14:11:40.829Z,7.68
2023-02-24T14:14:18.760Z,7.72
2023-02-24T14:16:51.238Z,7.80
2023-02-24T14:19:24.684Z,8.45
2023-02-24T14:24:27.555Z,7.80
2023-02-24T14:27:08.193Z,7.57
2023-02-24T14:29:47.113Z,8.02
2023-02-24T14:32:21.759Z,7.93
2023-02-24T14:34:53.457Z,7.95
2023-02-24T14:37:27.692Z,7.78
2023-02-24T14:40:00.696Z,8.32
2023-02-24T14:42:29.417Z,8.32
2023-02-24T14:45:04.997Z,8.18
2023-02-24T14:47:43.269Z,7.75
2023-02-24T14:50:27.643Z,8.40
2023-02-24T14:53:05.177Z,8.32
2023-02-24T14:55:39.954Z,8.13
2023-02-24T14:58:36.503Z,9.07
2023-02-24T15:01:41.384Z,9.60
2023-02-24T15:04:37.108Z,8.23
2023-02-24T15:07:17.442Z,8.40
2023-02-24T15:09:48.263Z,8.13
2023-02-24T15:12:33.472Z,8.30
2023-02-24T15:15:14.597Z,8.38
2023-02-24T15:17:48.871Z,7.88
2023-02-24T15:20:26.387Z,8.65
2023-02-24T15:23:00.569Z,8.35
2023-02-24T15:25:43.708Z,8.57
2023-02-24T15:28:26.496Z,8.40
2023-02-24T15:31:23.998Z,7.90
2023-02-24T15:34:00.443Z,8.60
2023-02-24T15:36:36.414Z,8.80
2023-02-24T15:39:13.665Z,8.20
2023-02-24T15:41:50.135Z,8.70
2023-02-24T15:44:36.107Z,8.30
2023-02-24T15:47:30.144Z,7.53
2023-02-24T15:50:02.744Z,7.65
2023-02-24T15:52:36.659Z,8.00
2023-02-24T15:55:05.504Z,7.60
2023-02-24T15:57:34.224Z,7.93
2023-02-24T16:00:13.394Z,8.07
2023-02-24T16:02:42.094Z,8.38
2023-02-24T16:05:13.898Z,7.57
2023-02-24T16:07:44.845Z,7.97
2023-02-24T16:10:25.579Z,7.63
2023-02-24T16:13:01.907Z,7.43
2023-02-24T16:15:38.386Z,7.63
2023-02-24T16:18:20.972Z,7.72
2023-02-24T16:20:54.814Z,8.10
2023-02-24T16:23:28.317Z,7.40
2023-02-24T16:26:02.536Z,8.13
2023-02-24T16:28:35.449Z,8.02
2023-02-24T16:31:09.161Z,7.10
2023-02-24T16:33:54.132Z,6.80
2023-02-24T16:36:25.571Z,7.72
2023-02-24T16:39:01.318Z,7.85
2023-02-24T16:41:31.167Z,7.35
2023-02-24T16:44:03.940Z,7.57
2023-02-24T16:46:41.515Z,7.77
2023-02-24T16:49:13.713Z,7.38
2023-02-24T16:51:41.302Z,7.97
2023-02-24T16:54:11.973Z,7.55
2023-02-24T16:56:42.539Z,7.25
2023-02-24T16:59:13.843Z,7.25
2023-02-24T17:01:43.688Z,7.03
2023-02-24T17:04:14.395Z,7.75
2023-02-24T17:06:45.434Z,7.43
2023-02-24T17:09:15.781Z,7.45
2023-02-24T17:11:46.320Z,7.25
2023-02-24T17:14:20.232Z,7.40
2023-02-24T17:16:50.900Z,7.57
2023-02-24T17:19:25.774Z,6.95
2023-02-24T17:21:58.689Z,7.57
2023-02-24T17:24:26.311Z,7.53
2023-02-24T17:27:04.535Z,7.65
2023-02-24T17:29:40.993Z,7.45
2023-02-24T17:32:17.617Z,6.78
2023-02-24T17:34:48.065Z,7.05
2023-02-24T17:37:22.264Z,6.80
2023-02-24T17:40:00.509Z,7.32
2023-02-24T17:42:36.674Z,7.25
2023-02-24T17:45:05.954Z,7.05
2023-02-24T17:47:43.448Z,7.47
2023-02-24T17:50:13.487Z,7.93
2023-02-24T17:52:49.887Z,6.55
2023-02-24T17:55:17.692Z,7.45
2023-02-24T17:57:50.467Z,6.90
2023-02-24T18:00:18.865Z,7.50
2023-02-24T18:02:49.189Z,7.25
2023-02-24T18:05:20.190Z,7.25
2023-02-24T18:07:53.229Z,7.68
2023-02-24T18:10:23.861Z,7.22
2023-02-24T18:12:56.659Z,7.20
2023-02-24T18:15:24.009Z,7.53
2023-02-24T18:17:56.601Z,7.07
2023-02-24T18:20:24.908Z,8.20
2023-02-24T18:22:53.018Z,7.05
2023-02-24T18:25:23.475Z,7.18
2023-02-24T18:27:55.882Z,7.47
2023-02-24T18:30:23.200Z,7.38
2023-02-24T18:32:55.717Z,6.93
2023-02-24T18:35:24.509Z,7.13
2023-02-24T18:37:56.900Z,7.70
2023-02-24T18:40:28.799Z,6.95
2023-02-24T18:42:56.113Z,6.90
2023-02-24T18:45:26.377Z,7.10
2023-02-24T18:47:53.900Z,7.25
2023-02-24T18:50:25.028Z,6.47
2023-02-24T18:52:52.348Z,6.82
2023-02-24T18:55:24.925Z,7.22
2023-02-24T18:57:57.151Z,7.40
2023-02-24T19:00:29.668Z,6.97
2023-02-24T19:02:57.029Z,6.90
2023-02-24T19:05:26.005Z,7.10
2023-02-24T19:07:59.381Z,7.20
2023-02-24T19:10:29.300Z,6.80
2023-02-24T19:13:01.513Z,7.00
2023-02-24T19:15:31.019Z,7.00
2023-02-24T19:18:03.273Z,7.38
2023-02-24T19:20:40.867Z,7.30
2023-02-24T19:23:13.743Z,7.20
2023-02-24T19:25:41.046Z,7.10
2023-02-24T19:28:13.809Z,7.70
2023-02-24T19:30:46.621Z,6.97
2023-02-24T19:33:17.692Z,7.25
2023-02-24T19:35:47.353Z,8.15
2023-02-24T19:38:21.119Z,8.07
2023-02-24T19:40:53.305Z,7.75
2023-02-24T19:43:20.607Z,7.45
2023-02-24T19:45:52.757Z,6.68
2023-02-24T19:48:25.787Z,7.80
2023-02-24T19:50:53.093Z,7.45
2023-02-24T19:53:23.963Z,8.10
2023-02-24T19:55:58.566Z,8.00
2023-02-24T19:58:31.047Z,7.35
2023-02-24T20:01:11.002Z,8.50
2023-02-24T20:03:42.849Z,7.20
2023-02-24T20:06:31.791Z,8.23
2023-02-24T20:09:03.721Z,7.40
2023-02-24T20:11:34.268Z,8.07
2023-02-24T20:14:08.356Z,8.38
2023-02-24T20:16:39.107Z,7.82
2023-02-24T20:19:10.047Z,8.82
2023-02-24T20:21:41.318Z,8.68
2023-02-24T20:24:13.784Z,8.90
2023-02-24T20:26:47.299Z,8.30
2023-02-24T20:29:15.856Z,8.55
2023-02-24T20:31:48.975Z,9.02
2023-02-24T20:34:19.078Z,8.35
2023-02-24T20:36:51.700Z,8.88
2023-02-24T20:39:25.947Z,8.50
2023-02-24T20:41:54.648Z,9.00
2023-02-24T20:44:27.483Z,9.13
2023-02-24T20:46:59.332Z,9.77
2023-02-24T20:49:32.944Z,9.10
2023-02-24T20:52:00.267Z,9.35
2023-02-24T20:54:30.437Z,8.98
2023-02-24T20:57:00.760Z,9.27
2023-02-24T20:59:33.232Z,9.50
2023-02-24T21:02:11.387Z,9.15
2023-02-24T21:04:49.687Z,8.77
2023-02-24T21:07:21.525Z,9.07
2023-02-24T21:09:52.320Z,9.25
2023-02-24T21:12:42.609Z,9.15
2023-02-24T21:15:14.887Z,9.25
2023-02-24T21:17:48.383Z,10.23
2023-02-24T21:20:16.964Z,8.85
2023-02-24T21:22:54.677Z,9.38
2023-02-24T21:25:28.313Z,9.63
2023-02-24T21:30:26.115Z,9.30
2023-02-24T21:32:53.494Z,9.95
2023-02-24T21:35:26.453Z,10.30
2023-02-24T21:38:01.647Z,9.35
2023-02-24T21:40:33.174Z,9.57
2023-02-24T21:43:07.945Z,10.05
2023-02-24T21:45:45.794Z,9.65
2023-02-24T21:48:24.992Z,9.13
2023-02-24T21:51:04.415Z,9.35
2023-02-24T21:53:40.825Z,9.80
2023-02-24T21:56:21.242Z,9.32
2023-02-24T21:58:54.788Z,9.63
2023-02-24T22:01:38.979Z,9.52
2023-02-24T22:04:14.260Z,9.60
2023-02-24T22:06:47.686Z,10.05
2023-02-24T22:09:23.651Z,10.50
2023-02-24T22:11:57.163Z,9.75
2023-02-24T22:14:34.569Z,10.30
2023-02-24T22:17:07.431Z,10.15
2023-02-24T22:19:44.040Z,10.63
2023-02-24T22:22:13.738Z,10.93
2023-02-24T22:24:41.824Z,10.68
2023-02-24T22:27:17.773Z,10.05
2023-02-24T22:32:32.092Z,11.13
2023-02-24T22:35:02.321Z,11.93
2023-02-24T22:37:36.796Z,11.15
2023-02-24T22:40:07.848Z,11.25
2023-02-24T22:42:40.634Z,11.50
2023-02-24T22:45:11.675Z,11.50
2023-02-24T22:47:43.252Z,12.00
2023-02-24T22:50:26.234Z,10.77
2023-02-24T22:52:54.565Z,11.10
2023-02-24T22:55:27.561Z,11.50
2023-02-24T22:58:04.746Z,13.13
2023-02-24T23:00:36.250Z,10.57
2023-02-24T23:03:30.689Z,11.77
2023-02-24T23:06:04.915Z,12.40
2023-02-24T23:08:43.413Z,12.38
2023-02-24T23:11:20.975Z,12.57
2023-02-24T23:13:52.201Z,11.77
2023-02-24T23:16:32.704Z,12.38
2023-02-24T23:19:20.043Z,12.23
2023-02-24T23:21:57.093Z,12.70
2023-02-24T23:24:38.269Z,13.20
2023-02-24T23:27:06.363Z,12.98
2023-02-24T23:30:00.182Z,13.02
2023-02-24T23:32:30.768Z,13.35
2023-02-24T23:35:23.762Z,13.57
2023-02-24T23:38:00.009Z,14.07
2023-02-24T23:40:35.956Z,14.13
2023-02-24T23:43:12.643Z,13.95
2023-02-24T23:45:46.666Z,13.80
2023-02-24T23:48:28.764Z,13.77
2023-02-24T23:50:59.541Z,13.32
2023-02-24T23:53:38.913Z,14.20
2023-02-24T23:56:17.684Z,13.35
2023-02-24T23:58:56.710Z,13.98
